.
WxDataArchive / Data Records for 2014-07-28
2014-07-27 July 2014 2014-07-29

Data Records for Monday, 28 July 2014

Time	Temp	Chill	HIndex	Humid	Dewpt	 Wind 	HiWind	WindDir	Rain 	Barom
-----	----	-----	------	-----	-----	------	------	-------	-----	-----
00:00	65.5	65.5	65.5	77	58.1	0	2	292	0.00	29.731 
00:05	65.3	65.3	65.3	78	58.3	1	3	292	0.00	29.731 
00:10	65.3	65.3	65.3	77	57.9	1	3	292	0.00	29.731 
00:15	65.3	65.3	65.3	77	57.9	0	2	292	0.00	29.737 
00:20	65.2	65.2	65.2	77	57.8	1	3	292	0.00	29.737 
00:25	65.2	65.2	65.2	77	57.8	1	5	292	0.00	29.737 
00:30	65.2	65.2	65.2	77	57.8	1	3	292	0.00	29.734 
00:35	65.0	65.0	65.0	77	57.6	2	5	315	0.00	29.734 
00:40	65.0	65.0	65.0	77	57.6	2	5	292	0.00	29.734 
00:45	64.8	64.8	64.8	77	57.4	2	4	270	0.00	29.728 
00:50	64.7	64.7	64.7	77	57.3	1	4	270	0.00	29.728 
00:55	64.5	64.5	64.5	78	57.5	1	4	292	0.00	29.728 
01:00	64.5	64.5	64.5	78	57.5	2	5	292	0.00	29.734 
01:05	64.3	64.3	64.3	78	57.3	2	6	292	0.00	29.734 
01:10	64.2	64.2	64.2	79	57.5	3	9	292	0.00	29.734 
01:15	63.9	63.9	63.9	80	57.6	3	8	270	0.00	29.736 
01:20	63.7	63.7	63.7	85	59.1	4	9	292	0.00	29.736 
01:25	63.5	63.5	63.5	81	57.6	2	4	270	0.00	29.736 
01:30	63.5	63.5	63.5	82	57.9	2	5	292	0.00	29.739 
01:35	63.5	63.5	63.5	82	57.9	2	5	292	0.00	29.739 
01:40	63.5	63.5	63.5	82	57.9	3	6	315	0.00	29.739 
01:45	63.5	63.5	63.5	82	57.9	2	5	292	0.00	29.735 
01:50	63.5	63.5	63.5	82	57.9	2	5	315	0.00	29.735 
01:55	63.5	63.5	63.5	82	57.9	2	4	292	0.00	29.735 
02:00	63.5	63.5	63.5	82	57.9	1	5	270	0.00	29.738 
02:05	63.5	63.5	63.5	83	58.2	3	9	292	0.00	29.738 
02:10	63.5	63.5	63.5	83	58.2	1	4	270	0.00	29.738 
02:15	63.5	63.5	63.5	83	58.2	2	6	270	0.00	29.733 
02:20	63.5	63.5	63.5	83	58.2	1	4	270	0.00	29.733 
02:25	63.5	63.5	63.5	83	58.2	1	4	270	0.00	29.733 
02:30	63.5	63.5	63.5	83	58.2	2	5	292	0.00	29.734 
02:35	63.5	63.5	63.5	83	58.2	2	5	270	0.00	29.734 
02:40	63.5	63.5	63.5	83	58.2	1	4	270	0.00	29.734 
02:45	63.4	63.4	63.4	84	58.5	1	3	292	0.00	29.735 
02:50	63.4	63.4	63.4	84	58.5	1	3	292	0.00	29.735 
02:55	63.2	63.2	63.2	84	58.3	1	4	292	0.00	29.735 
03:00	63.2	63.2	63.2	84	58.3	1	5	292	0.00	29.744 
03:05	63.2	63.2	63.2	84	58.3	1	5	292	0.00	29.744 
03:10	63.2	63.2	63.2	84	58.3	2	5	315	0.00	29.744 
03:15	63.4	63.4	63.4	84	58.5	1	4	338	0.00	29.742 
03:20	63.4	63.4	63.4	83	58.1	2	6	292	0.00	29.742 
03:25	63.4	63.4	63.4	83	58.1	1	4	292	0.00	29.742 
03:30	63.4	63.4	63.4	83	58.1	1	5	315	0.00	29.743 
03:35	63.2	63.2	63.2	83	57.9	2	4	315	0.00	29.743 
03:40	63.2	63.2	63.2	83	57.9	1	5	270	0.00	29.743 
03:45	63.1	63.1	63.1	84	58.2	1	5	270	0.00	29.748 
03:50	63.1	63.1	63.1	84	58.2	1	5	292	0.00	29.748 
03:55	63.1	63.1	63.1	84	58.2	1	4	270	0.00	29.748 
04:00	63.2	63.2	63.2	84	58.3	1	3	270	0.00	29.748 
04:05	63.2	63.2	63.2	84	58.3	1	2	270	0.00	29.748 
04:10	63.2	63.2	63.2	84	58.3	1	3	270	0.00	29.748 
04:15	63.2	63.2	63.2	84	58.3	1	3	270	0.00	29.766 
04:20	63.4	63.4	63.4	84	58.5	1	4	270	0.00	29.766 
04:25	63.4	63.4	63.4	84	58.5	1	3	292	0.00	29.766 
04:30	63.4	63.4	63.4	84	58.5	1	4	315	0.00	29.775 
04:35	63.5	63.5	63.5	84	58.6	1	4	315	0.00	29.775 
04:40	63.5	63.5	63.5	84	58.6	1	3	315	0.00	29.775 
04:45	63.5	63.5	63.5	84	58.6	1	3	315	0.00	29.776 
04:50	63.5	63.5	63.5	84	58.6	1	3	315	0.00	29.776 
04:55	63.5	63.5	63.5	83	58.2	2	5	292	0.00	29.776 
05:00	63.5	63.5	63.5	83	58.2	2	5	315	0.00	29.781 
05:05	63.4	63.4	63.4	83	58.1	1	3	315	0.00	29.781 
05:10	63.4	63.4	63.4	84	58.5	0	3	315	0.00	29.781 
05:15	63.2	63.2	63.2	84	58.3	0	1	315	0.00	29.791 
05:20	63.2	63.2	63.2	84	58.3	1	4	315	0.00	29.791 
05:25	63.2	63.2	63.2	84	58.3	1	3	315	0.00	29.791 
05:30	63.4	63.4	63.4	84	58.5	1	4	315	0.00	29.795 
05:35	63.4	63.4	63.4	84	58.5	0	3	315	0.00	29.795 
05:40	63.4	63.4	63.4	84	58.5	1	3	315	0.00	29.795 
05:45	63.4	63.4	63.4	84	58.5	1	3	315	0.00	29.805 
05:50	63.4	63.4	63.4	84	58.5	0	3	315	0.00	29.805 
05:55	63.4	63.4	63.4	84	58.5	1	4	315	0.00	29.805 
06:00	63.4	63.4	63.4	84	58.5	1	3	315	0.00	29.807 
06:05	63.4	63.4	63.4	84	58.5	1	6	315	0.00	29.807 
06:10	63.4	63.4	63.4	84	58.5	1	2	292	0.00	29.807 
06:15	63.4	63.4	63.4	84	58.5	1	5	292	0.00	29.816 
06:20	63.4	63.4	63.4	84	58.5	1	3	270	0.00	29.816 
06:25	63.4	63.4	63.4	85	58.8	0	2	270	0.00	29.816 
06:30	63.4	63.4	63.4	85	58.8	1	3	270	0.00	29.818 
06:35	63.4	63.4	63.4	85	58.8	1	4	315	0.00	29.818 
06:40	63.4	63.4	63.4	85	58.8	1	2	315	0.00	29.818 
06:45	63.5	63.5	63.5	84	58.6	1	5	292	0.00	29.825 
06:50	63.5	63.5	63.5	84	58.6	1	3	292	0.00	29.825 
06:55	63.5	63.5	63.5	84	58.6	1	6	270	0.00	29.825 
07:00	63.5	63.5	63.5	84	58.6	1	3	270	0.00	29.829 
07:05	63.7	63.7	63.7	84	58.8	2	4	270	0.00	29.829 
07:10	63.7	63.7	63.7	84	58.8	1	5	270	0.00	29.829 
07:15	63.7	63.7	63.7	84	58.8	1	4	248	0.00	29.833 
07:20	63.9	63.9	63.9	84	59.0	1	3	338	0.00	29.833 
07:25	63.9	63.9	63.9	83	58.6	2	5	338	0.00	29.833 
07:30	64.0	64.0	64.0	83	58.7	1	3	315	0.00	29.833 
07:35	64.2	64.2	64.2	83	58.9	1	3	315	0.00	29.833 
07:40	64.2	64.2	64.2	82	58.6	1	3	315	0.00	29.833 
07:45	64.3	64.3	64.3	82	58.7	1	4	270	0.00	29.837 
07:50	64.3	64.3	64.3	82	58.7	1	4	270	0.00	29.837 
07:55	64.5	64.5	64.5	82	58.9	1	5	315	0.00	29.837 
08:00	64.7	64.7	64.7	82	59.1	2	6	338	0.00	29.847 
08:05	64.8	64.8	64.8	81	58.8	2	4	338	0.00	29.847 
08:10	65.0	65.0	65.0	81	59.0	2	4	338	0.00	29.847 
08:15	65.0	65.0	65.0	81	59.0	2	5	315	0.00	29.850 
08:20	65.0	65.0	65.0	81	59.0	1	4	338	0.00	29.850 
08:25	65.0	65.0	65.0	81	59.0	2	5	338	0.00	29.850 
08:30	65.0	65.0	65.0	81	59.0	3	5	292	0.00	29.859 
08:35	65.0	65.0	65.0	81	59.0	1	5	292	0.00	29.859 
08:40	65.0	65.0	65.0	81	59.0	1	4	315	0.00	29.859 
08:45	65.0	65.0	65.0	84	60.0	2	6	338	0.00	29.864 
08:50	65.0	65.0	65.0	80	58.7	2	4	292	0.00	29.864 
08:55	64.8	64.8	64.8	80	58.5	2	5	292	0.00	29.864 
09:00	64.8	64.8	64.8	80	58.5	3	5	315	0.00	29.875 
09:05	65.0	65.0	65.0	80	58.7	3	6	338	0.00	29.875 
09:10	65.2	65.2	65.2	80	58.9	2	4	292	0.00	29.875 
09:15	65.5	65.5	65.5	78	58.5	2	5	292	0.00	29.879 
09:20	65.8	65.8	65.8	77	58.4	2	4	315	0.00	29.879 
09:25	65.8	65.8	65.8	77	58.4	2	4	315	0.00	29.879 
09:30	65.6	65.6	65.6	78	58.5	1	4	315	0.00	29.887 
09:35	65.5	65.5	65.5	77	58.1	3	9	338	0.00	29.887 
09:40	65.3	65.3	65.3	78	58.3	1	4	338	0.00	29.887 
09:45	65.6	65.6	65.6	77	58.2	2	5	338	0.00	29.894 
09:50	66.1	66.1	66.1	75	57.9	2	6	315	0.00	29.894 
09:55	66.1	66.1	66.1	74	57.6	2	6	315	0.00	29.894 
10:00	66.0	66.0	66.0	74	57.5	2	4	315	0.00	29.897 
10:05	66.0	66.0	66.0	73	57.1	2	5	292	0.00	29.897 
10:10	66.0	66.0	66.0	73	57.1	1	5	292	0.00	29.897 
10:15	66.4	66.4	66.4	74	57.9	2	5	315	0.00	29.899 
10:20	67.1	67.1	67.1	73	58.1	1	4	315	0.00	29.899 
10:25	66.6	66.6	66.6	70	56.5	2	5	292	0.00	29.899 
10:30	66.6	66.6	66.6	70	56.5	2	6	292	0.00	29.901 
10:35	67.1	67.1	67.1	69	56.6	1	4	338	0.00	29.901 
10:40	66.9	66.9	66.9	70	56.8	1	4	315	0.00	29.901 
10:45	66.9	66.9	66.9	70	56.8	2	5	315	0.00	29.909 
10:50	67.3	67.3	67.3	69	56.8	3	6	292	0.00	29.909 
10:55	67.6	67.6	67.6	68	56.7	3	5	315	0.00	29.909 
11:00	68.1	68.1	68.1	69	57.5	2	7	338	0.00	29.911 
11:05	68.4	68.4	68.4	66	56.6	2	6	315	0.00	29.911 
11:10	68.6	68.6	68.6	65	56.4	3	5	292	0.00	29.911 
11:15	68.6	68.6	68.6	66	56.8	2	5	292	0.00	29.914 
11:20	68.8	68.8	68.8	66	57.0	2	5	292	0.00	29.914 
11:25	68.8	68.8	68.8	65	56.5	2	6	248	0.00	29.914 
11:30	68.6	68.6	68.6	65	56.4	2	4	292	0.00	29.914 
11:35	69.1	69.1	69.1	65	56.8	2	5	292	0.00	29.914 
11:40	69.3	69.3	69.3	62	55.7	3	6	292	0.00	29.914 
11:45	68.4	68.4	68.4	64	55.7	2	4	292	0.00	29.923 
11:50	68.6	68.6	68.6	64	55.9	2	6	338	0.00	29.923 
11:55	69.3	69.3	69.3	63	56.2	1	5	292	0.00	29.923 
12:00	68.8	68.8	68.8	61	54.8	3	6	292	0.00	29.927 
12:05	68.8	68.8	68.8	62	55.2	2	6	292	0.00	29.927 
12:10	69.4	69.4	69.4	60	54.9	2	4	338	0.00	29.927 
12:15	69.4	69.4	69.4	62	55.8	2	6	338	0.00	29.928 
12:20	69.8	69.8	69.8	61	55.7	2	5	315	0.00	29.928 
12:25	69.1	69.1	69.1	60	54.6	2	7	315	0.00	29.928 
12:30	69.4	69.4	69.4	59	54.4	2	5	292	0.00	29.929 
12:35	69.4	69.4	69.4	61	55.4	2	5	292	0.00	29.929 
12:40	68.9	68.9	68.9	60	54.4	2	6	315	0.00	29.929 
12:45	68.6	68.6	68.6	60	54.1	3	9	315	0.00	29.930 
12:50	68.4	68.4	68.4	60	54.0	2	5	315	0.00	29.930 
12:55	69.3	69.3	69.3	58	53.9	3	6	270	0.00	29.930 
13:00	69.8	69.8	69.8	59	54.8	2	5	270	0.00	29.928 
13:05	69.8	69.8	69.8	59	54.8	2	5	270	0.00	29.928 
13:10	69.9	69.9	69.9	58	54.4	3	5	292	0.00	29.928 
13:15	69.9	69.9	69.9	59	54.9	3	9	315	0.00	29.929 
13:20	69.9	69.9	69.9	61	55.8	2	6	315	0.00	29.929 
13:25	70.1	70.1	70.1	57	54.1	3	6	292	0.00	29.929 
13:30	69.8	69.8	69.8	58	54.3	3	9	292	0.00	29.929 
13:35	69.9	69.9	69.9	59	54.9	2	5	292	0.00	29.929 
13:40	69.9	69.9	69.9	58	54.4	3	6	338	0.00	29.929 
13:45	69.4	69.4	69.4	61	55.4	1	4	315	0.00	29.931 
13:50	69.3	69.3	69.3	59	54.3	2	6	315	0.00	29.931 
13:55	69.1	69.1	69.1	60	54.6	2	6	292	0.00	29.931 
14:00	69.3	69.3	69.3	60	54.8	2	4	292	0.00	29.931 
14:05	69.1	69.1	69.1	59	54.2	3	6	292	0.00	29.931 
14:10	69.3	69.3	69.3	58	53.9	2	5	270	0.00	29.931 
14:15	69.4	69.4	69.4	58	54.0	2	4	270	0.00	29.931 
14:20	69.3	69.3	69.3	58	53.9	2	5	270	0.00	29.931 
14:25	69.8	69.8	69.8	57	53.9	2	6	292	0.00	29.931 
14:30	69.6	69.6	69.6	57	53.7	2	6	292	0.00	29.931 
14:35	69.4	69.4	69.4	57	53.5	2	4	315	0.00	29.931 
14:40	69.6	69.6	69.6	56	53.2	2	7	315	0.00	29.931 
14:45	70.4	70.4	70.4	58	54.9	2	6	292	0.00	29.931 
14:50	71.1	71.1	71.1	55	54.1	3	6	270	0.00	29.931 
14:55	72.0	72.0	72.0	54	54.4	2	6	292	0.00	29.931 
15:00	71.8	71.8	71.8	52	53.2	2	7	292	0.00	29.931 
15:05	71.5	71.5	71.5	53	53.5	2	5	315	0.00	29.931 
15:10	72.0	72.0	72.0	52	53.4	3	9	270	0.00	29.931 
15:15	71.6	71.6	71.6	50	52.0	3	10	338	0.00	29.931 
15:20	71.8	71.8	71.8	52	53.2	3	6	315	0.00	29.931 
15:25	72.0	72.0	72.0	50	52.3	4	7	270	0.00	29.931 
15:30	71.5	71.5	71.5	53	53.5	3	7	315	0.00	29.932 
15:35	71.3	71.3	71.3	57	55.3	3	9	292	0.00	29.932 
15:40	71.3	71.3	71.3	54	53.8	4	9	270	0.00	29.932 
15:45	71.3	71.3	71.3	57	55.3	2	5	270	0.00	29.932 
15:50	71.3	71.3	71.3	55	54.3	5	9	270	0.00	29.932 
15:55	71.1	71.1	71.1	54	53.6	4	8	270	0.00	29.932 
16:00	71.5	71.5	71.5	55	54.5	3	6	315	0.00	29.936 
16:05	71.5	71.5	71.5	54	54.0	4	7	270	0.00	29.936 
16:10	71.5	71.5	71.5	55	54.5	3	6	270	0.00	29.936 
16:15	70.9	70.9	70.9	54	53.4	4	7	292	0.00	29.941 
16:20	69.9	69.9	69.9	56	53.5	3	6	270	0.00	29.941 
16:25	69.3	69.3	69.3	59	54.3	3	5	270	0.00	29.941 
16:30	69.8	69.8	69.8	57	53.9	3	7	270	0.00	29.943 
16:35	70.1	70.1	70.1	56	53.7	4	7	270	0.00	29.943 
16:40	70.4	70.4	70.4	56	53.9	3	7	270	0.00	29.943 
16:45	69.9	69.9	69.9	55	53.0	3	5	292	0.00	29.943 
16:50	69.3	69.3	69.3	56	52.9	3	6	292	0.00	29.943 
16:55	69.3	69.3	69.3	57	53.4	4	7	292	0.00	29.943 
17:00	69.4	69.4	69.4	57	53.5	3	6	315	0.00	29.946 
17:05	69.6	69.6	69.6	57	53.7	3	6	315	0.00	29.946 
17:10	69.1	69.1	69.1	58	53.7	4	7	292	0.00	29.946 
17:15	69.1	69.1	69.1	58	53.7	4	6	270	0.00	29.946 
17:20	69.3	69.3	69.3	58	53.9	3	6	270	0.00	29.946 
17:25	69.3	69.3	69.3	57	53.4	3	11	270	0.00	29.946 
17:30	68.6	68.6	68.6	58	53.2	4	10	270	0.00	29.948 
17:35	68.6	68.6	68.6	58	53.2	4	10	270	0.00	29.948 
17:40	68.4	68.4	68.4	58	53.0	4	9	270	0.00	29.948 
17:45	68.1	68.1	68.1	58	52.8	4	7	270	0.00	29.949 
17:50	67.9	67.9	67.9	59	53.0	3	7	270	0.00	29.949 
17:55	67.8	67.8	67.8	60	53.4	3	6	292	0.00	29.949 
18:00	67.3	67.3	67.3	58	52.0	3	7	292	0.00	29.955 
18:05	66.8	66.8	66.8	60	52.5	4	7	292	0.00	29.955 
18:10	66.4	66.4	66.4	61	52.5	3	5	315	0.00	29.955 
18:15	66.4	66.4	66.4	61	52.5	4	7	292	0.00	29.954 
18:20	66.3	66.3	66.3	60	52.0	3	7	315	0.00	29.954 
18:25	66.1	66.1	66.1	59	51.3	3	7	270	0.00	29.954 
18:30	65.8	65.8	65.8	60	51.5	3	7	270	0.00	29.958 
18:35	65.5	65.5	65.5	60	51.2	4	7	270	0.00	29.958 
18:40	65.3	65.3	65.3	60	51.1	3	7	292	0.00	29.958 
18:45	65.3	65.3	65.3	61	51.5	2	5	292	0.00	29.958 
18:50	65.3	65.3	65.3	59	50.6	3	6	270	0.00	29.958 
18:55	65.2	65.2	65.2	59	50.5	3	5	270	0.00	29.958 
19:00	65.0	65.0	65.0	58	49.9	3	6	315	0.00	29.961 
19:05	64.7	64.7	64.7	57	49.1	2	7	315	0.00	29.961 
19:10	64.3	64.3	64.3	58	49.2	3	6	292	0.00	29.961 
19:15	64.2	64.2	64.2	59	49.6	3	6	315	0.00	29.961 
19:20	63.9	63.9	63.9	61	50.2	3	6	292	0.00	29.961 
19:25	63.7	63.7	63.7	61	50.0	3	7	270	0.00	29.961 
19:30	63.5	63.5	63.5	61	49.8	3	6	315	0.00	29.966 
19:35	63.4	63.4	63.4	61	49.7	1	5	315	0.00	29.966 
19:40	63.2	63.2	63.2	61	49.5	3	6	315	0.00	29.966 
19:45	63.1	63.1	63.1	61	49.4	3	5	270	0.00	29.966 
19:50	62.7	62.7	62.7	62	49.5	2	5	315	0.00	29.966 
19:55	62.7	62.7	62.7	62	49.5	2	5	270	0.00	29.966 
20:00	62.4	62.4	62.4	62	49.2	2	6	292	0.00	29.968 
20:05	62.4	62.4	62.4	62	49.2	1	3	292	0.00	29.968 
20:10	62.1	62.1	62.1	62	48.9	2	4	270	0.00	29.968 
20:15	62.0	62.0	62.0	62	48.8	2	6	315	0.00	29.972 
20:20	61.8	61.8	61.8	62	48.6	1	4	338	0.00	29.972 
20:25	61.6	61.6	61.6	63	48.9	1	5	292	0.00	29.972 
20:30	61.3	61.3	61.3	64	49.0	2	5	315	0.00	29.975 
20:35	61.2	61.2	61.2	64	48.9	1	4	315	0.00	29.975 
20:40	61.0	61.0	61.0	65	49.1	1	3	315	0.00	29.975 
20:45	60.7	60.7	60.7	64	48.4	2	4	315	0.00	29.979 
20:50	60.4	60.4	60.4	65	48.6	2	5	270	0.00	29.979 
20:55	60.1	60.1	60.1	65	48.3	1	4	315	0.00	29.979 
21:00	59.9	59.9	59.9	66	48.5	1	5	315	0.00	29.983 
21:05	59.6	59.6	59.6	66	48.2	1	3	315	0.00	29.983 
21:10	59.5	59.5	59.5	67	48.5	2	4	270	0.00	29.983 
21:15	59.3	59.3	59.3	68	48.7	1	3	270	0.00	29.985 
21:20	59.2	59.2	59.2	68	48.6	0	3	270	0.00	29.985 
21:25	58.9	58.9	58.9	69	48.7	0	2	270	0.00	29.985 
21:30	58.7	58.7	58.7	70	48.9	0	3	315	0.00	29.986 
21:35	58.6	58.6	58.6	70	48.8	1	3	315	0.00	29.986 
21:40	58.4	58.4	58.4	71	49.0	0	3	315	0.00	29.986 
21:45	58.3	58.3	58.3	72	49.3	0	2	315	0.00	29.986 
21:50	58.1	58.1	58.1	73	49.5	0	2	315	0.00	29.986 
21:55	58.0	58.0	58.0	73	49.4	0	2	315	0.00	29.986 
22:00	57.8	57.8	57.8	74	49.6	0	1	315	0.00	29.988 
22:05	57.6	57.6	57.6	74	49.4	0	3	315	0.00	29.988 
22:10	57.5	57.5	57.5	75	49.6	0	2	315	0.00	29.988 
22:15	57.5	57.5	57.5	75	49.6	0	2	315	0.00	29.991 
22:20	57.3	57.3	57.3	76	49.8	0	2	315	0.00	29.991 
22:25	57.2	57.2	57.2	76	49.7	0	1	315	0.00	29.991 
22:30	57.0	57.0	57.0	77	49.9	0	1	315	0.00	29.997 
22:35	57.0	57.0	57.0	77	49.9	0	1	315	0.00	29.997 
22:40	57.0	57.0	57.0	78	50.2	1	4	315	0.00	29.997 
22:45	56.9	56.9	56.9	78	50.1	0	1	315	0.00	29.997 
22:50	56.9	56.9	56.9	79	50.5	0	1	315	0.00	29.997 
22:55	56.7	56.7	56.7	79	50.3	0	1	315	0.00	29.997 
23:00	56.7	56.7	56.7	79	50.3	0	1	315	0.00	29.996 
23:05	56.6	56.6	56.6	80	50.5	0	2	315	0.00	29.996 
23:10	56.5	56.5	56.5	80	50.4	0	1	315	0.00	29.996 
23:15	56.5	56.5	56.5	80	50.4	0	1	315	0.00	29.995 
23:20	56.3	56.3	56.3	81	50.5	0	1	315	0.00	29.995 
23:25	56.3	56.3	56.3	81	50.5	0	1	315	0.00	29.995 
23:30	56.2	56.2	56.2	81	50.4	0	1	315	0.00	29.996 
23:35	56.2	56.2	56.2	81	50.4	0	1	315	0.00	29.996 
23:40	56.0	56.0	56.0	81	50.3	0	2	315	0.00	29.996 
23:45	56.0	56.0	56.0	81	50.3	0	1	315	0.00	29.995 
23:50	55.9	55.9	55.9	82	50.5	0	1	315	0.00	29.995 
23:55	55.9	55.9	55.9	82	50.5	0	1	315	0.00	29.995 

CoCoRaHS
IN-AL-39
A2 Web Hosting
Creative Commons License
GoDaddy
search engine by freefind advanced

loaded 2018-11-16 23:43:08 • last modified 2010-11-18 10:43:29
Privacy PolicyDisclaimer
• wx.awcolley.com is powered by PmWiki v.2002016 •
• all content (unless otherwise noted) © 2018 A W Colley